sensor_id;sensor_type;location;lat;lon;timestamp;pressure;altitude;pressure_sealevel;temperature;humidity
12879;BME280;20617;49.476;10.986;2023-01-29T00:01:44;99387.53;;;0.15;100.00
12879;BME280;20617;49.476;10.986;2023-01-29T00:03:50;99389.25;;;0.16;100.00
12879;BME280;20617;49.476;10.986;2023-01-29T00:05:54;99397.69;;;0.10;100.00
12879;BME280;20617;49.476;10.986;2023-01-29T00:08:02;99393.56;;;0.18;100.00
12879;BME280;20617;49.476;10.986;2023-01-29T00:10:09;99389.31;;;0.19;100.00
12879;BME280;20617;49.476;10.986;2023-01-29T00:12:14;99392.91;;;0.30;100.00
12879;BME280;20617;49.476;10.986;2023-01-29T00:14:19;99395.53;;;0.33;100.00
12879;BME280;20617;49.476;10.986;2023-01-29T00:16:24;99395.34;;;0.22;100.00
12879;BME280;20617;49.476;10.986;2023-01-29T00:18:29;99405.41;;;0.13;100.00
12879;BME280;20617;49.476;10.986;2023-01-29T00:20:34;99392.56;;;0.10;100.00
12879;BME280;20617;49.476;10.986;2023-01-29T00:22:39;99403.53;;;0.03;100.00
12879;BME280;20617;49.476;10.986;2023-01-29T00:24:47;99401.56;;;-0.10;100.00
12879;BME280;20617;49.476;10.986;2023-01-29T00:26:52;99395.72;;;-0.05;100.00
12879;BME280;20617;49.476;10.986;2023-01-29T00:28:56;99396.34;;;-0.15;100.00
12879;BME280;20617;49.476;10.986;2023-01-29T00:31:07;99386.06;;;-0.19;100.00
12879;BME280;20617;49.476;10.986;2023-01-29T00:33:12;99388.56;;;-0.21;100.00
12879;BME280;20617;49.476;10.986;2023-01-29T00:35:17;99387.75;;;-0.18;100.00
12879;BME280;20617;49.476;10.986;2023-01-29T00:37:22;99381.03;;;-0.13;100.00
12879;BME280;20617;49.476;10.986;2023-01-29T00:39:27;99375.81;;;-0.18;100.00
12879;BME280;20617;49.476;10.986;2023-01-29T00:41:51;99379.06;;;-0.27;100.00
12879;BME280;20617;49.476;10.986;2023-01-29T00:44:09;99375.81;;;-0.19;100.00
12879;BME280;20617;49.476;10.986;2023-01-29T00:46:27;99379.28;;;-0.17;100.00
12879;BME280;20617;49.476;10.986;2023-01-29T00:48:32;99375.78;;;-0.21;100.00
12879;BME280;20617;49.476;10.986;2023-01-29T00:50:37;99376.50;;;-0.28;100.00
12879;BME280;20617;49.476;10.986;2023-01-29T00:52:42;99374.84;;;-0.25;100.00
12879;BME280;20617;49.476;10.986;2023-01-29T00:54:49;99370.63;;;-0.22;100.00
12879;BME280;20617;49.476;10.986;2023-01-29T00:56:57;99374.31;;;-0.08;100.00
12879;BME280;20617;49.476;10.986;2023-01-29T00:59:02;99367.66;;;0.00;100.00
12879;BME280;20617;49.476;10.986;2023-01-29T01:01:07;99372.81;;;0.03;100.00
12879;BME280;20617;49.476;10.986;2023-01-29T01:03:12;99377.00;;;-0.01;100.00
12879;BME280;20617;49.476;10.986;2023-01-29T01:05:16;99374.50;;;0.03;100.00
12879;BME280;20617;49.476;10.986;2023-01-29T01:07:21;99363.44;;;0.05;100.00
12879;BME280;20617;49.476;10.986;2023-01-29T01:09:26;99369.47;;;0.07;100.00
12879;BME280;20617;49.476;10.986;2023-01-29T01:11:43;99371.13;;;0.04;100.00
12879;BME280;20617;49.476;10.986;2023-01-29T01:13:51;99372.66;;;-0.05;100.00
12879;BME280;20617;49.476;10.986;2023-01-29T01:15:57;99369.16;;;-0.11;100.00
12879;BME280;20617;49.476;10.986;2023-01-29T01:18:03;99380.03;;;-0.23;100.00
12879;BME280;20617;49.476;10.986;2023-01-29T01:20:10;99379.34;;;-0.13;100.00
12879;BME280;20617;49.476;10.986;2023-01-29T01:22:16;99379.53;;;-0.02;100.00
12879;BME280;20617;49.476;10.986;2023-01-29T01:24:21;99379.38;;;-0.11;100.00
12879;BME280;20617;49.476;10.986;2023-01-29T01:26:26;99364.91;;;-0.09;100.00
12879;BME280;20617;49.476;10.986;2023-01-29T01:28:34;99369.41;;;0.04;100.00
12879;BME280;20617;49.476;10.986;2023-01-29T01:30:41;99369.25;;;-0.05;100.00
12879;BME280;20617;49.476;10.986;2023-01-29T01:32:47;99373.22;;;-0.21;100.00
12879;BME280;20617;49.476;10.986;2023-01-29T01:34:52;99371.50;;;-0.20;100.00
12879;BME280;20617;49.476;10.986;2023-01-29T01:36:56;99374.94;;;-0.20;100.00
12879;BME280;20617;49.476;10.986;2023-01-29T01:39:02;99370.84;;;-0.10;100.00
12879;BME280;20617;49.476;10.986;2023-01-29T01:41:07;99367.56;;;-0.03;100.00
12879;BME280;20617;49.476;10.986;2023-01-29T01:43:12;99367.72;;;0.05;100.00
12879;BME280;20617;49.476;10.986;2023-01-29T01:45:17;99374.44;;;-0.02;100.00
12879;BME280;20617;49.476;10.986;2023-01-29T01:47:30;99386.81;;;-0.24;100.00
12879;BME280;20617;49.476;10.986;2023-01-29T01:49:36;99376.72;;;-0.17;100.00
12879;BME280;20617;49.476;10.986;2023-01-29T01:51:44;99374.78;;;-0.28;100.00
12879;BME280;20617;49.476;10.986;2023-01-29T01:53:53;99375.44;;;-0.38;100.00
12879;BME280;20617;49.476;10.986;2023-01-29T01:56:02;99379.13;;;-0.24;100.00
12879;BME280;20617;49.476;10.986;2023-01-29T01:58:12;99379.97;;;-0.25;100.00
12879;BME280;20617;49.476;10.986;2023-01-29T02:00:20;99372.41;;;-0.20;100.00
12879;BME280;20617;49.476;10.986;2023-01-29T02:02:28;99375.75;;;-0.22;100.00
12879;BME280;20617;49.476;10.986;2023-01-29T02:04:47;99370.59;;;-0.24;100.00
12879;BME280;20617;49.476;10.986;2023-01-29T02:07:07;99367.16;;;-0.26;100.00
12879;BME280;20617;49.476;10.986;2023-01-29T02:09:31;99370.69;;;-0.18;100.00
12879;BME280;20617;49.476;10.986;2023-01-29T02:11:38;99366.66;;;-0.07;100.00
12879;BME280;20617;49.476;10.986;2023-01-29T02:13:43;99366.59;;;-0.10;100.00
12879;BME280;20617;49.476;10.986;2023-01-29T02:15:59;99369.03;;;-0.16;100.00
12879;BME280;20617;49.476;10.986;2023-01-29T02:18:06;99374.16;;;-0.17;100.00
12879;BME280;20617;49.476;10.986;2023-01-29T02:20:18;99373.25;;;-0.18;100.00
12879;BME280;20617;49.476;10.986;2023-01-29T02:22:59;99373.16;;;-0.24;100.00
12879;BME280;20617;49.476;10.986;2023-01-29T02:25:40;99377.91;;;-0.42;100.00
12879;BME280;20617;49.476;10.986;2023-01-29T02:28:15;99383.06;;;-0.41;100.00
12879;BME280;20617;49.476;10.986;2023-01-29T02:30:27;99378.63;;;-0.50;100.00
12879;BME280;20617;49.476;10.986;2023-01-29T02:32:41;99372.91;;;-0.36;100.00
12879;BME280;20617;49.476;10.986;2023-01-29T02:35:10;99364.50;;;-0.31;100.00
12879;BME280;20617;49.476;10.986;2023-01-29T02:37:36;99359.97;;;-0.44;100.00
12879;BME280;20617;49.476;10.986;2023-01-29T02:39:49;99352.41;;;-0.38;100.00
12879;BME280;20617;49.476;10.986;2023-01-29T02:42:01;99356.78;;;-0.34;100.00
12879;BME280;20617;49.476;10.986;2023-01-29T02:44:19;99356.03;;;-0.28;100.00
12879;BME280;20617;49.476;10.986;2023-01-29T02:46:31;99352.75;;;-0.21;100.00
12879;BME280;20617;49.476;10.986;2023-01-29T02:48:42;99355.56;;;-0.07;100.00
12879;BME280;20617;49.476;10.986;2023-01-29T02:50:54;99352.19;;;-0.05;100.00
12879;BME280;20617;49.476;10.986;2023-01-29T02:53:05;99357.25;;;-0.08;100.00
12879;BME280;20617;49.476;10.986;2023-01-29T02:55:16;99356.16;;;-0.20;100.00
12879;BME280;20617;49.476;10.986;2023-01-29T02:57:26;99362.06;;;-0.25;100.00
12879;BME280;20617;49.476;10.986;2023-01-29T02:59:38;99360.50;;;-0.16;100.00
12879;BME280;20617;49.476;10.986;2023-01-29T03:01:47;99360.50;;;-0.16;100.00
12879;BME280;20617;49.476;10.986;2023-01-29T03:03:55;99360.56;;;-0.13;100.00
12879;BME280;20617;49.476;10.986;2023-01-29T03:06:05;99355.59;;;-0.06;100.00
12879;BME280;20617;49.476;10.986;2023-01-29T03:08:17;99360.03;;;0.03;100.00
12879;BME280;20617;49.476;10.986;2023-01-29T03:10:27;99354.16;;;0.10;100.00
12879;BME280;20617;49.476;10.986;2023-01-29T03:12:37;99356.81;;;0.16;100.00
12879;BME280;20617;49.476;10.986;2023-01-29T03:14:48;99364.41;;;0.10;100.00
12879;BME280;20617;49.476;10.986;2023-01-29T03:17:07;99372.69;;;-0.03;100.00
12879;BME280;20617;49.476;10.986;2023-01-29T03:19:15;99377.09;;;0.06;100.00
12879;BME280;20617;49.476;10.986;2023-01-29T03:21:26;99371.28;;;0.14;100.00
12879;BME280;20617;49.476;10.986;2023-01-29T03:23:48;99370.31;;;0.08;100.00
12879;BME280;20617;49.476;10.986;2023-01-29T03:26:06;99371.91;;;0.01;100.00
12879;BME280;20617;49.476;10.986;2023-01-29T03:28:25;99379.50;;;-0.05;100.00
12879;BME280;20617;49.476;10.986;2023-01-29T03:30:49;99370.41;;;-0.33;100.00
12879;BME280;20617;49.476;10.986;2023-01-29T03:33:31;99368.72;;;-0.33;100.00
12879;BME280;20617;49.476;10.986;2023-01-29T03:35:42;99368.59;;;-0.39;100.00
12879;BME280;20617;49.476;10.986;2023-01-29T03:37:50;99384.81;;;-0.38;100.00
12879;BME280;20617;49.476;10.986;2023-01-29T03:39:57;99384.81;;;-0.40;100.00
12879;BME280;20617;49.476;10.986;2023-01-29T03:42:11;99381.44;;;-0.36;100.00
12879;BME280;20617;49.476;10.986;2023-01-29T03:44:24;99387.34;;;-0.40;100.00
12879;BME280;20617;49.476;10.986;2023-01-29T03:46:37;99381.72;;;-0.64;100.00
12879;BME280;20617;49.476;10.986;2023-01-29T03:48:51;99375.91;;;-0.57;100.00
12879;BME280;20617;49.476;10.986;2023-01-29T03:51:01;99374.28;;;-0.55;100.00
12879;BME280;20617;49.476;10.986;2023-01-29T03:53:20;99376.09;;;-0.48;100.00
12879;BME280;20617;49.476;10.986;2023-01-29T03:55:32;99379.53;;;-0.48;100.00
12879;BME280;20617;49.476;10.986;2023-01-29T03:57:41;99384.75;;;-0.43;100.00
12879;BME280;20617;49.476;10.986;2023-01-29T03:59:54;99382.25;;;-0.40;100.00
12879;BME280;20617;49.476;10.986;2023-01-29T04:02:22;99383.31;;;-0.29;100.00
12879;BME280;20617;49.476;10.986;2023-01-29T04:04:33;99389.31;;;-0.27;100.00
12879;BME280;20617;49.476;10.986;2023-01-29T04:06:41;99387.63;;;-0.26;100.00
12879;BME280;20617;49.476;10.986;2023-01-29T04:08:51;99388.50;;;-0.26;100.00
12879;BME280;20617;49.476;10.986;2023-01-29T04:11:03;99383.38;;;-0.26;100.00
12879;BME280;20617;49.476;10.986;2023-01-29T04:13:12;99390.09;;;-0.31;100.00
12879;BME280;20617;49.476;10.986;2023-01-29T04:15:21;99402.97;;;-0.26;100.00
12879;BME280;20617;49.476;10.986;2023-01-29T04:17:34;99394.38;;;-0.30;100.00
12879;BME280;20617;49.476;10.986;2023-01-29T04:19:50;99390.19;;;-0.26;100.00
12879;BME280;20617;49.476;10.986;2023-01-29T04:21:58;99398.59;;;-0.32;100.00
12879;BME280;20617;49.476;10.986;2023-01-29T04:24:05;99397.66;;;-0.37;100.00
12879;BME280;20617;49.476;10.986;2023-01-29T04:29:00;99384.06;;;-0.34;100.00
12879;BME280;20617;49.476;10.986;2023-01-29T04:31:12;99380.75;;;-0.29;100.00
12879;BME280;20617;49.476;10.986;2023-01-29T04:33:28;99378.22;;;-0.27;100.00
12879;BME280;20617;49.476;10.986;2023-01-29T04:35:46;99377.31;;;-0.29;100.00
12879;BME280;20617;49.476;10.986;2023-01-29T04:38:04;99384.31;;;-0.20;100.00
12879;BME280;20617;49.476;10.986;2023-01-29T04:40:17;99388.59;;;-0.19;100.00
12879;BME280;20617;49.476;10.986;2023-01-29T04:42:28;99380.19;;;-0.14;100.00
12879;BME280;20617;49.476;10.986;2023-01-29T04:44:37;99390.53;;;-0.06;100.00
12879;BME280;20617;49.476;10.986;2023-01-29T04:46:46;99399.94;;;-0.07;100.00
12879;BME280;20617;49.476;10.986;2023-01-29T04:49:05;99398.31;;;-0.02;100.00
12879;BME280;20617;49.476;10.986;2023-01-29T04:51:18;99395.81;;;0.00;100.00
12879;BME280;20617;49.476;10.986;2023-01-29T04:53:33;99387.41;;;0.09;100.00
12879;BME280;20617;49.476;10.986;2023-01-29T04:55:44;99395.91;;;0.06;100.00
12879;BME280;20617;49.476;10.986;2023-01-29T04:57:53;99388.13;;;0.00;100.00
12879;BME280;20617;49.476;10.986;2023-01-29T05:00:07;99381.34;;;0.04;100.00
12879;BME280;20617;49.476;10.986;2023-01-29T05:02:13;99375.22;;;-0.05;100.00
12879;BME280;20617;49.476;10.986;2023-01-29T05:04:22;99369.38;;;0.01;100.00
12879;BME280;20617;49.476;10.986;2023-01-29T05:06:29;99362.38;;;-0.06;100.00
12879;BME280;20617;49.476;10.986;2023-01-29T05:08:36;99362.59;;;0.03;100.00
12879;BME280;20617;49.476;10.986;2023-01-29T05:10:43;99356.66;;;0.07;100.00
12879;BME280;20617;49.476;10.986;2023-01-29T05:12:52;99359.38;;;0.16;100.00
12879;BME280;20617;49.476;10.986;2023-01-29T05:15:00;99358.44;;;0.11;100.00
12879;BME280;20617;49.476;10.986;2023-01-29T05:17:11;99361.63;;;-0.02;100.00
12879;BME280;20617;49.476;10.986;2023-01-29T05:19:20;99365.91;;;-0.03;100.00
12879;BME280;20617;49.476;10.986;2023-01-29T05:21:26;99365.91;;;-0.01;100.00
12879;BME280;20617;49.476;10.986;2023-01-29T05:23:31;99372.63;;;-0.08;100.00
12879;BME280;20617;49.476;10.986;2023-01-29T05:25:36;99371.81;;;-0.04;100.00
12879;BME280;20617;49.476;10.986;2023-01-29T05:27:41;99361.47;;;-0.11;100.00
12879;BME280;20617;49.476;10.986;2023-01-29T05:29:58;99353.84;;;-0.08;100.00
12879;BME280;20617;49.476;10.986;2023-01-29T05:32:03;99355.66;;;-0.01;100.00
12879;BME280;20617;49.476;10.986;2023-01-29T05:34:08;99351.28;;;-0.08;100.00
12879;BME280;20617;49.476;10.986;2023-01-29T05:36:15;99339.34;;;-0.08;100.00
12879;BME280;20617;49.476;10.986;2023-01-29T05:38:21;99343.50;;;-0.13;100.00
12879;BME280;20617;49.476;10.986;2023-01-29T05:40:26;99337.69;;;-0.06;100.00
12879;BME280;20617;49.476;10.986;2023-01-29T05:42:31;99336.97;;;0.03;100.00
12879;BME280;20617;49.476;10.986;2023-01-29T05:44:36;99329.00;;;-0.14;100.00
12879;BME280;20617;49.476;10.986;2023-01-29T05:46:41;99326.34;;;-0.18;100.00
12879;BME280;20617;49.476;10.986;2023-01-29T05:48:51;99315.75;;;-0.38;100.00
12879;BME280;20617;49.476;10.986;2023-01-29T05:50:58;99318.19;;;-0.46;100.00
12879;BME280;20617;49.476;10.986;2023-01-29T05:53:06;99322.13;;;-0.62;100.00
12879;BME280;20617;49.476;10.986;2023-01-29T05:55:11;99325.47;;;-0.64;100.00
12879;BME280;20617;49.476;10.986;2023-01-29T05:57:15;99328.19;;;-0.57;100.00
12879;BME280;20617;49.476;10.986;2023-01-29T05:59:21;99325.00;;;-0.47;100.00
12879;BME280;20617;49.476;10.986;2023-01-29T06:01:25;99322.38;;;-0.48;100.00
12879;BME280;20617;49.476;10.986;2023-01-29T06:03:30;99323.47;;;-0.35;100.00
12879;BME280;20617;49.476;10.986;2023-01-29T06:05:36;99329.72;;;-0.21;100.00
12879;BME280;20617;49.476;10.986;2023-01-29T06:07:41;99319.66;;;-0.10;100.00
12879;BME280;20617;49.476;10.986;2023-01-29T06:09:52;99318.22;;;0.04;100.00
12879;BME280;20617;49.476;10.986;2023-01-29T06:11:57;99323.53;;;0.15;100.00
12879;BME280;20617;49.476;10.986;2023-01-29T06:14:01;99331.97;;;0.09;100.00
12879;BME280;20617;49.476;10.986;2023-01-29T06:16:09;99324.38;;;0.15;100.00
12879;BME280;20617;49.476;10.986;2023-01-29T06:18:15;99324.38;;;0.15;100.00
12879;BME280;20617;49.476;10.986;2023-01-29T06:20:20;99333.78;;;0.16;100.00
12879;BME280;20617;49.476;10.986;2023-01-29T06:22:24;99326.13;;;0.18;100.00
12879;BME280;20617;49.476;10.986;2023-01-29T06:24:29;99332.03;;;0.12;100.00
12879;BME280;20617;49.476;10.986;2023-01-29T06:26:37;99330.88;;;-0.05;100.00
12879;BME280;20617;49.476;10.986;2023-01-29T06:28:42;99337.69;;;-0.04;100.00
12879;BME280;20617;49.476;10.986;2023-01-29T06:30:50;99334.59;;;-0.33;100.00
12879;BME280;20617;49.476;10.986;2023-01-29T06:32:55;99335.19;;;-0.48;100.00
12879;BME280;20617;49.476;10.986;2023-01-29T06:35:02;99339.34;;;-0.53;100.00
12879;BME280;20617;49.476;10.986;2023-01-29T06:37:07;99332.63;;;-0.48;100.00
12879;BME280;20617;49.476;10.986;2023-01-29T06:39:12;99342.84;;;-0.48;100.00
12879;BME280;20617;49.476;10.986;2023-01-29T06:41:18;99350.31;;;-0.59;100.00
12879;BME280;20617;49.476;10.986;2023-01-29T06:43:28;99356.81;;;-0.73;100.00
12879;BME280;20617;49.476;10.986;2023-01-29T06:45:33;99354.25;;;-0.75;100.00
12879;BME280;20617;49.476;10.986;2023-01-29T06:47:38;99349.16;;;-0.73;100.00
12879;BME280;20617;49.476;10.986;2023-01-29T06:49:43;99350.09;;;-0.70;100.00
12879;BME280;20617;49.476;10.986;2023-01-29T06:51:48;99352.84;;;-0.60;100.00
12879;BME280;20617;49.476;10.986;2023-01-29T06:53:53;99349.69;;;-0.47;100.00
12879;BME280;20617;49.476;10.986;2023-01-29T06:55:58;99355.97;;;-0.30;100.00
12879;BME280;20617;49.476;10.986;2023-01-29T06:58:06;99353.69;;;-0.17;100.00
12879;BME280;20617;49.476;10.986;2023-01-29T07:00:17;99362.31;;;-0.11;100.00
12879;BME280;20617;49.476;10.986;2023-01-29T07:02:22;99357.41;;;0.00;100.00
12879;BME280;20617;49.476;10.986;2023-01-29T07:04:27;99363.50;;;0.08;100.00
12879;BME280;20617;49.476;10.986;2023-01-29T07:06:32;99367.88;;;0.14;100.00
12879;BME280;20617;49.476;10.986;2023-01-29T07:08:37;99363.66;;;0.17;100.00
12879;BME280;20617;49.476;10.986;2023-01-29T07:10:42;99364.59;;;0.22;100.00
12879;BME280;20617;49.476;10.986;2023-01-29T07:12:47;99367.84;;;0.12;100.00
12879;BME280;20617;49.476;10.986;2023-01-29T07:14:52;99368.47;;;-0.01;100.00
12879;BME280;20617;49.476;10.986;2023-01-29T07:17:00;99369.16;;;-0.11;100.00
12879;BME280;20617;49.476;10.986;2023-01-29T07:19:05;99375.59;;;-0.30;100.00
12879;BME280;20617;49.476;10.986;2023-01-29T07:21:09;99378.94;;;-0.33;100.00
12879;BME280;20617;49.476;10.986;2023-01-29T07:23:14;99380.31;;;-0.52;100.00
12879;BME280;20617;49.476;10.986;2023-01-29T07:25:19;99380.38;;;-0.47;100.00
12879;BME280;20617;49.476;10.986;2023-01-29T07:27:24;99371.94;;;-0.43;100.00
12879;BME280;20617;49.476;10.986;2023-01-29T07:29:29;99367.69;;;-0.42;100.00
12879;BME280;20617;49.476;10.986;2023-01-29T07:31:34;99373.72;;;-0.39;100.00
12879;BME280;20617;49.476;10.986;2023-01-29T07:33:41;99370.25;;;-0.41;100.00
12879;BME280;20617;49.476;10.986;2023-01-29T07:35:47;99372.81;;;-0.41;100.00
12879;BME280;20617;49.476;10.986;2023-01-29T07:37:52;99368.50;;;-0.45;100.00
12879;BME280;20617;49.476;10.986;2023-01-29T07:39:57;99370.59;;;-0.26;100.00
12879;BME280;20617;49.476;10.986;2023-01-29T07:42:01;99363.84;;;-0.20;100.00
12879;BME280;20617;49.476;10.986;2023-01-29T07:44:06;99362.31;;;-0.11;100.00
12879;BME280;20617;49.476;10.986;2023-01-29T07:46:11;99363.44;;;0.04;100.00
12879;BME280;20617;49.476;10.986;2023-01-29T07:48:16;99369.63;;;0.16;100.00
12879;BME280;20617;49.476;10.986;2023-01-29T07:50:25;99379.88;;;0.16;100.00
12879;BME280;20617;49.476;10.986;2023-01-29T07:52:31;99373.63;;;0.01;100.00
12879;BME280;20617;49.476;10.986;2023-01-29T07:54:36;99373.53;;;-0.04;100.00
12879;BME280;20617;49.476;10.986;2023-01-29T07:56:41;99375.97;;;-0.10;100.00
12879;BME280;20617;49.476;10.986;2023-01-29T07:58:46;99383.75;;;-0.06;100.00
12879;BME280;20617;49.476;10.986;2023-01-29T08:00:51;99389.31;;;-0.27;100.00
12879;BME280;20617;49.476;10.986;2023-01-29T08:03:01;99394.28;;;-0.34;100.00
12879;BME280;20617;49.476;10.986;2023-01-29T08:05:08;99401.25;;;-0.27;100.00
12879;BME280;20617;49.476;10.986;2023-01-29T08:07:15;99399.81;;;-0.13;100.00
12879;BME280;20617;49.476;10.986;2023-01-29T08:09:20;99406.84;;;-0.01;100.00
12879;BME280;20617;49.476;10.986;2023-01-29T08:11:25;99401.03;;;0.08;100.00
12879;BME280;20617;49.476;10.986;2023-01-29T08:13:30;99405.31;;;0.07;100.00
12879;BME280;20617;49.476;10.986;2023-01-29T08:15:37;99402.59;;;-0.01;100.00
12879;BME280;20617;49.476;10.986;2023-01-29T08:17:44;99401.94;;;0.10;100.00
12879;BME280;20617;49.476;10.986;2023-01-29T08:19:58;99400.41;;;0.19;100.00
12879;BME280;20617;49.476;10.986;2023-01-29T08:22:04;99400.44;;;0.22;100.00
12879;BME280;20617;49.476;10.986;2023-01-29T08:24:11;99402.06;;;0.17;100.00
12879;BME280;20617;49.476;10.986;2023-01-29T08:26:17;99396.72;;;0.05;100.00
12879;BME280;20617;49.476;10.986;2023-01-29T08:28:23;99400.19;;;0.07;100.00
12879;BME280;20617;49.476;10.986;2023-01-29T08:30:30;99395.38;;;0.26;100.00
12879;BME280;20617;49.476;10.986;2023-01-29T08:32:36;99398.78;;;0.25;100.00
12879;BME280;20617;49.476;10.986;2023-01-29T08:34:40;99404.63;;;0.16;100.00
12879;BME280;20617;49.476;10.986;2023-01-29T08:36:47;99406.31;;;0.15;100.00
12879;BME280;20617;49.476;10.986;2023-01-29T08:38:52;99403.69;;;0.12;100.00
12879;BME280;20617;49.476;10.986;2023-01-29T08:40:59;99407.97;;;0.13;100.00
12879;BME280;20617;49.476;10.986;2023-01-29T08:43:06;99410.06;;;0.34;100.00
12879;BME280;20617;49.476;10.986;2023-01-29T08:45:11;99409.53;;;0.54;100.00
12879;BME280;20617;49.476;10.986;2023-01-29T08:47:16;99414.56;;;0.49;100.00
12879;BME280;20617;49.476;10.986;2023-01-29T08:49:21;99415.31;;;0.42;100.00
12879;BME280;20617;49.476;10.986;2023-01-29T08:51:26;99411.94;;;0.44;100.00
12879;BME280;20617;49.476;10.986;2023-01-29T08:53:31;99413.66;;;0.45;100.00
12879;BME280;20617;49.476;10.986;2023-01-29T08:55:36;99418.88;;;0.50;100.00
12879;BME280;20617;49.476;10.986;2023-01-29T08:57:44;99413.19;;;0.70;100.00
12879;BME280;20617;49.476;10.986;2023-01-29T08:59:50;99408.06;;;0.70;100.00
12879;BME280;20617;49.476;10.986;2023-01-29T09:01:55;99404.69;;;0.71;100.00
12879;BME280;20617;49.476;10.986;2023-01-29T09:04:00;99412.34;;;0.67;100.00
12879;BME280;20617;49.476;10.986;2023-01-29T09:06:06;99408.16;;;0.74;100.00
12879;BME280;20617;49.476;10.986;2023-01-29T09:08:12;99403.50;;;0.52;100.00
12879;BME280;20617;49.476;10.986;2023-01-29T09:10:17;99404.50;;;0.58;100.00
12879;BME280;20617;49.476;10.986;2023-01-29T09:12:22;99410.38;;;0.54;100.00
12879;BME280;20617;49.476;10.986;2023-01-29T09:14:29;99406.22;;;0.59;100.00
12879;BME280;20617;49.476;10.986;2023-01-29T09:16:34;99411.34;;;0.59;100.00
12879;BME280;20617;49.476;10.986;2023-01-29T09:18:39;99408.50;;;0.42;100.00
12879;BME280;20617;49.476;10.986;2023-01-29T09:20:44;99411.69;;;0.31;100.00
12879;BME280;20617;49.476;10.986;2023-01-29T09:22:48;99413.50;;;0.36;100.00
12879;BME280;20617;49.476;10.986;2023-01-29T09:24:56;99414.31;;;0.34;100.00
12879;BME280;20617;49.476;10.986;2023-01-29T09:27:01;99420.19;;;0.27;100.00
12879;BME280;20617;49.476;10.986;2023-01-29T09:29:08;99410.59;;;0.15;100.00
12879;BME280;20617;49.476;10.986;2023-01-29T09:31:16;99407.03;;;0.08;100.00
12879;BME280;20617;49.476;10.986;2023-01-29T09:33:21;99401.25;;;0.18;100.00
12879;BME280;20617;49.476;10.986;2023-01-29T09:35:26;99397.94;;;0.24;100.00
12879;BME280;20617;49.476;10.986;2023-01-29T09:37:31;99393.47;;;0.14;100.00
12879;BME280;20617;49.476;10.986;2023-01-29T09:39:36;99402.69;;;0.04;100.00
12879;BME280;20617;49.476;10.986;2023-01-29T09:41:50;99395.19;;;0.13;100.00
12879;BME280;20617;49.476;10.986;2023-01-29T09:44:00;99382.38;;;0.12;100.00
12879;BME280;20617;49.476;10.986;2023-01-29T09:46:18;99390.16;;;0.19;100.00
12879;BME280;20617;49.476;10.986;2023-01-29T09:48:27;99384.31;;;0.27;100.00
12879;BME280;20617;49.476;10.986;2023-01-29T09:50:37;99384.28;;;0.24;100.00
12879;BME280;20617;49.476;10.986;2023-01-29T09:52:47;99372.28;;;0.22;100.00
12879;BME280;20617;49.476;10.986;2023-01-29T09:54:57;99362.34;;;0.39;100.00
12879;BME280;20617;49.476;10.986;2023-01-29T09:57:06;99375.47;;;0.59;100.00
12879;BME280;20617;49.476;10.986;2023-01-29T09:59:21;99367.78;;;0.61;100.00
12879;BME280;20617;49.476;10.986;2023-01-29T10:01:32;99368.06;;;0.78;100.00
12879;BME280;20617;49.476;10.986;2023-01-29T10:06:24;99359.19;;;1.15;100.00
12879;BME280;20617;49.476;10.986;2023-01-29T10:08:44;99363.56;;;1.24;100.00
12879;BME280;20617;49.476;10.986;2023-01-29T10:10:58;99362.00;;;1.35;100.00
12879;BME280;20617;49.476;10.986;2023-01-29T10:13:13;99358.66;;;1.42;100.00
12879;BME280;20617;49.476;10.986;2023-01-29T10:15:31;99367.03;;;1.27;100.00
12879;BME280;20617;49.476;10.986;2023-01-29T10:17:55;99374.03;;;1.38;100.00
12879;BME280;20617;49.476;10.986;2023-01-29T10:22:41;99389.63;;;0.90;100.00
12879;BME280;20617;49.476;10.986;2023-01-29T10:24:50;99382.53;;;0.74;100.00
12879;BME280;20617;49.476;10.986;2023-01-29T10:26:57;99379.78;;;0.63;100.00
12879;BME280;20617;49.476;10.986;2023-01-29T10:29:05;99373.00;;;0.65;100.00
12879;BME280;20617;49.476;10.986;2023-01-29T10:31:17;99368.75;;;0.67;100.00
12879;BME280;20617;49.476;10.986;2023-01-29T10:33:32;99386.78;;;0.74;100.00
12879;BME280;20617;49.476;10.986;2023-01-29T10:36:02;99391.16;;;0.79;100.00
12879;BME280;20617;49.476;10.986;2023-01-29T10:38:17;99392.81;;;0.76;100.00
12879;BME280;20617;49.476;10.986;2023-01-29T10:40:31;99392.22;;;0.95;100.00
12879;BME280;20617;49.476;10.986;2023-01-29T10:42:45;99390.03;;;1.21;100.00
12879;BME280;20617;49.476;10.986;2023-01-29T10:45:03;99394.38;;;1.27;100.00
12879;BME280;20617;49.476;10.986;2023-01-29T10:47:39;99392.09;;;1.47;100.00
12879;BME280;20617;49.476;10.986;2023-01-29T10:50:16;99385.28;;;1.49;100.00
12879;BME280;20617;49.476;10.986;2023-01-29T10:52:32;99379.13;;;1.34;100.00
12879;BME280;20617;49.476;10.986;2023-01-29T10:54:59;99365.91;;;1.05;100.00
12879;BME280;20617;49.476;10.986;2023-01-29T10:57:13;99370.81;;;0.93;100.00
12879;BME280;20617;49.476;10.986;2023-01-29T10:59:35;99358.22;;;1.07;100.00
12879;BME280;20617;49.476;10.986;2023-01-29T11:01:43;99364.19;;;1.06;100.00
12879;BME280;20617;49.476;10.986;2023-01-29T11:03:55;99351.28;;;1.01;100.00
12879;BME280;20617;49.476;10.986;2023-01-29T11:06:09;99352.31;;;1.12;100.00
12879;BME280;20617;49.476;10.986;2023-01-29T11:08:19;99342.72;;;0.98;100.00
12879;BME280;20617;49.476;10.986;2023-01-29T11:10:24;99346.88;;;0.89;100.00
12879;BME280;20617;49.476;10.986;2023-01-29T11:12:31;99323.94;;;1.02;100.00
12879;BME280;20617;49.476;10.986;2023-01-29T11:14:42;99323.78;;;0.88;100.00
12879;BME280;20617;49.476;10.986;2023-01-29T11:16:48;99326.03;;;0.66;100.00
12879;BME280;20617;49.476;10.986;2023-01-29T11:18:55;99317.44;;;0.61;100.00
12879;BME280;20617;49.476;10.986;2023-01-29T11:21:05;99320.81;;;0.60;100.00